createdAt,value
2022-08-26T00:01:00.870Z,12.90
2022-08-26T00:03:28.486Z,7.75
2022-08-26T00:05:55.440Z,8.00
2022-08-26T00:08:22.544Z,8.90
2022-08-26T00:10:49.491Z,8.52
2022-08-26T00:13:16.591Z,11.05
2022-08-26T00:15:47.115Z,11.18
2022-08-26T00:18:21.787Z,8.02
2022-08-26T00:20:49.926Z,7.82
2022-08-26T00:23:17.859Z,8.07
2022-08-26T00:25:44.862Z,6.88
2022-08-26T00:28:12.186Z,11.98
2022-08-26T00:30:39.220Z,9.30
2022-08-26T00:33:07.164Z,7.32
2022-08-26T00:35:34.901Z,7.65
2022-08-26T00:38:03.558Z,7.85
2022-08-26T00:40:33.474Z,10.48
2022-08-26T00:43:00.798Z,9.07
2022-08-26T00:45:29.341Z,9.48
2022-08-26T00:48:01.438Z,8.27
2022-08-26T00:50:36.391Z,7.18
2022-08-26T00:53:05.009Z,7.05
2022-08-26T00:55:38.230Z,7.20
2022-08-26T00:58:05.586Z,6.65
2022-08-26T01:00:32.762Z,14.57
2022-08-26T01:03:01.049Z,7.07
2022-08-26T01:05:28.599Z,5.97
2022-08-26T01:07:57.467Z,11.98
2022-08-26T01:10:27.899Z,11.20
2022-08-26T01:12:58.349Z,11.25
2022-08-26T01:15:27.853Z,14.57
2022-08-26T01:18:00.004Z,11.00
2022-08-26T01:20:45.475Z,14.60
2022-08-26T01:23:12.515Z,14.30
2022-08-26T01:25:43.242Z,13.55
2022-08-26T01:28:16.475Z,14.40
2022-08-26T01:30:44.643Z,14.10
2022-08-26T01:33:15.167Z,12.85
2022-08-26T01:35:42.935Z,11.90
2022-08-26T01:38:09.857Z,16.95
2022-08-26T01:40:37.753Z,14.32
2022-08-26T01:43:07.346Z,11.85
2022-08-26T01:45:35.336Z,11.63
2022-08-26T01:48:03.983Z,12.90
2022-08-26T01:50:32.693Z,13.75
2022-08-26T01:53:01.961Z,12.68
2022-08-26T01:55:32.324Z,11.80
2022-08-26T01:58:01.456Z,11.38
2022-08-26T02:00:28.395Z,11.32
2022-08-26T02:03:16.082Z,12.60
2022-08-26T02:05:53.419Z,10.82
2022-08-26T02:08:25.390Z,11.10
2022-08-26T02:10:54.895Z,10.48
2022-08-26T02:13:22.471Z,11.82
2022-08-26T02:15:49.795Z,12.68
2022-08-26T02:18:17.107Z,11.90
2022-08-26T02:20:44.520Z,12.02
2022-08-26T02:23:11.443Z,12.70
2022-08-26T02:25:51.703Z,13.65
2022-08-26T02:28:19.831Z,11.63
2022-08-26T02:30:47.293Z,10.98
2022-08-26T02:33:14.750Z,11.23
2022-08-26T02:35:41.849Z,11.95
2022-08-26T02:38:10.316Z,13.52
2022-08-26T02:40:40.942Z,11.95
2022-08-26T02:43:08.812Z,11.98
2022-08-26T02:45:35.995Z,12.57
2022-08-26T02:48:15.785Z,11.52
2022-08-26T02:53:09.850Z,10.05
2022-08-26T02:55:37.262Z,9.18
2022-08-26T02:58:04.852Z,9.02
2022-08-26T03:00:32.759Z,10.18
2022-08-26T03:02:59.926Z,9.82
2022-08-26T03:05:26.940Z,8.70
2022-08-26T03:07:54.006Z,10.07
2022-08-26T03:10:21.518Z,8.60
2022-08-26T03:12:48.544Z,9.55
2022-08-26T03:15:17.899Z,9.82
2022-08-26T03:17:47.043Z,10.13
2022-08-26T03:20:15.588Z,8.63
2022-08-26T03:22:44.555Z,9.80
2022-08-26T03:25:12.883Z,11.27
2022-08-26T03:27:41.802Z,10.10
2022-08-26T03:30:29.639Z,10.52
2022-08-26T03:32:57.243Z,11.40
2022-08-26T03:35:25.278Z,9.70
2022-08-26T03:37:52.666Z,9.23
2022-08-26T03:40:20.345Z,8.48
2022-08-26T03:42:47.885Z,10.35
2022-08-26T03:45:15.845Z,9.05
2022-08-26T03:47:42.830Z,8.10
2022-08-26T03:50:11.058Z,9.07
2022-08-26T03:52:43.043Z,9.13
2022-08-26T03:55:10.980Z,10.45
2022-08-26T03:57:37.930Z,10.00
2022-08-26T04:00:06.610Z,10.43
2022-08-26T04:02:35.712Z,9.35
2022-08-26T04:05:03.018Z,12.02
2022-08-26T04:07:32.099Z,8.88
2022-08-26T04:10:00.223Z,8.63
2022-08-26T04:12:27.196Z,7.88
2022-08-26T04:14:54.178Z,7.93
2022-08-26T04:19:53.903Z,9.77
2022-08-26T04:22:24.949Z,10.70
2022-08-26T04:24:52.569Z,7.68
2022-08-26T04:27:19.563Z,7.47
2022-08-26T04:29:47.785Z,9.10
2022-08-26T04:32:15.554Z,9.30
2022-08-26T04:34:43.613Z,10.00
2022-08-26T04:37:12.001Z,9.73
2022-08-26T04:39:39.052Z,8.23
2022-08-26T04:42:06.415Z,8.30
2022-08-26T04:44:34.983Z,10.65
2022-08-26T04:47:01.946Z,8.10
2022-08-26T04:49:35.469Z,13.25
2022-08-26T04:52:03.857Z,10.57
2022-08-26T04:54:31.730Z,9.67
2022-08-26T04:56:59.475Z,7.70
2022-08-26T04:59:26.441Z,7.68
2022-08-26T05:01:56.427Z,7.95
2022-08-26T05:04:23.525Z,11.18
2022-08-26T05:06:50.782Z,7.35
2022-08-26T05:09:19.122Z,8.23
2022-08-26T05:11:48.493Z,9.57
2022-08-26T05:14:19.798Z,7.32
2022-08-26T05:16:47.678Z,7.35
2022-08-26T05:19:15.378Z,7.07
2022-08-26T05:21:45.982Z,6.22
2022-08-26T05:24:14.301Z,7.65
2022-08-26T05:26:41.295Z,7.68
2022-08-26T05:29:08.284Z,10.27
2022-08-26T05:31:35.762Z,6.22
2022-08-26T05:34:04.563Z,7.75
2022-08-26T05:36:33.518Z,11.93
2022-08-26T05:39:01.136Z,8.25
2022-08-26T05:41:36.431Z,8.93
2022-08-26T05:44:07.156Z,7.97
2022-08-26T05:46:34.632Z,8.57
2022-08-26T05:49:02.598Z,8.38
2022-08-26T05:51:30.567Z,10.75
2022-08-26T05:53:58.388Z,9.88
2022-08-26T05:56:27.580Z,10.07
2022-08-26T05:58:55.886Z,7.38
2022-08-26T06:01:26.113Z,10.38
2022-08-26T06:03:54.870Z,12.82
2022-08-26T06:06:28.649Z,12.88
2022-08-26T06:08:59.317Z,13.27
2022-08-26T06:11:26.925Z,19.35
2022-08-26T06:13:54.627Z,15.45
2022-08-26T06:16:23.868Z,16.90
2022-08-26T06:18:51.779Z,17.67
2022-08-26T06:21:26.082Z,27.25
2022-08-26T06:24:13.516Z,20.58
2022-08-26T06:26:42.823Z,13.07
2022-08-26T06:29:10.031Z,20.02
2022-08-26T06:31:37.074Z,14.35
2022-08-26T06:34:10.522Z,19.88
2022-08-26T06:36:39.491Z,20.55
2022-08-26T06:39:07.546Z,14.73
2022-08-26T06:41:34.755Z,14.45
2022-08-26T06:44:02.602Z,16.95
2022-08-26T06:46:29.768Z,10.40
2022-08-26T06:48:58.361Z,13.02
2022-08-26T06:51:30.230Z,16.98
2022-08-26T06:53:59.554Z,12.50
2022-08-26T06:56:28.863Z,10.65
2022-08-26T06:58:55.869Z,11.00
2022-08-26T07:01:24.961Z,10.65
2022-08-26T07:03:53.243Z,10.68
2022-08-26T07:06:21.378Z,11.88
2022-08-26T07:08:49.184Z,11.18
2022-08-26T07:11:16.234Z,12.73
2022-08-26T07:13:43.703Z,11.65
2022-08-26T07:16:12.683Z,11.60
2022-08-26T07:18:42.172Z,10.30
2022-08-26T07:21:12.930Z,8.85
2022-08-26T07:23:41.514Z,9.98
2022-08-26T07:26:16.402Z,9.45
2022-08-26T07:28:47.377Z,12.38
2022-08-26T07:31:15.279Z,11.18
2022-08-26T07:33:42.624Z,10.35
2022-08-26T07:36:10.213Z,10.32
2022-08-26T07:38:37.878Z,10.88
2022-08-26T07:41:04.970Z,10.50
2022-08-26T07:43:32.403Z,11.15
2022-08-26T07:45:59.367Z,12.85
2022-08-26T07:48:26.702Z,12.75
2022-08-26T07:50:53.862Z,12.73
2022-08-26T07:53:21.534Z,10.45
2022-08-26T07:55:51.185Z,11.63
2022-08-26T07:58:19.346Z,15.10
2022-08-26T08:00:46.535Z,11.63
2022-08-26T08:03:15.010Z,10.82
2022-08-26T08:05:42.426Z,9.65
2022-08-26T08:08:19.731Z,9.95
2022-08-26T08:10:55.325Z,12.85
2022-08-26T08:13:22.642Z,13.80
2022-08-26T08:15:50.650Z,9.43
2022-08-26T08:18:20.546Z,11.88
2022-08-26T08:20:59.440Z,9.88
2022-08-26T08:23:32.263Z,9.43
2022-08-26T08:26:07.229Z,9.00
2022-08-26T08:28:35.954Z,7.53
2022-08-26T08:31:03.401Z,6.88
2022-08-26T08:33:30.542Z,7.50
2022-08-26T08:35:58.425Z,8.88
2022-08-26T08:38:25.671Z,7.47
2022-08-26T08:40:53.337Z,7.00
2022-08-26T08:43:38.306Z,6.03
2022-08-26T08:46:13.050Z,6.63
2022-08-26T08:48:43.824Z,5.32
2022-08-26T08:51:46.001Z,7.90
2022-08-26T08:54:13.538Z,7.47
2022-08-26T08:56:41.221Z,6.57
2022-08-26T08:59:17.482Z,6.25
2022-08-26T09:02:02.849Z,6.53
2022-08-26T09:04:48.043Z,6.70
2022-08-26T09:07:23.505Z,5.93
2022-08-26T09:10:00.006Z,6.70
2022-08-26T09:12:32.023Z,5.75
2022-08-26T09:15:15.187Z,6.43
2022-08-26T09:18:10.818Z,7.97
2022-08-26T09:20:49.281Z,5.15
2022-08-26T09:23:18.231Z,6.22
2022-08-26T09:25:48.106Z,8.23
2022-08-26T09:28:19.923Z,5.75
2022-08-26T09:30:53.666Z,8.70
2022-08-26T09:33:21.166Z,8.55
2022-08-26T09:35:49.177Z,7.35
2022-08-26T09:38:26.869Z,8.30
2022-08-26T09:41:02.938Z,5.50
2022-08-26T09:43:32.534Z,6.45
2022-08-26T09:46:29.296Z,7.80
2022-08-26T09:48:56.337Z,6.47
2022-08-26T09:51:32.536Z,5.70
2022-08-26T09:54:01.286Z,6.85
2022-08-26T09:56:32.129Z,6.63
2022-08-26T09:58:59.276Z,5.90
2022-08-26T10:01:30.188Z,5.05
2022-08-26T10:04:10.441Z,8.40
2022-08-26T10:06:56.303Z,6.22
2022-08-26T10:09:25.100Z,6.20
2022-08-26T10:11:53.919Z,5.50
2022-08-26T10:14:28.180Z,6.68
2022-08-26T10:17:11.489Z,6.95
2022-08-26T10:19:56.666Z,4.00
2022-08-26T10:22:39.210Z,4.55
2022-08-26T10:25:08.395Z,9.90
2022-08-26T10:27:55.605Z,6.20
2022-08-26T10:30:24.060Z,5.82
2022-08-26T10:32:54.007Z,6.70
2022-08-26T10:35:21.033Z,5.13
2022-08-26T10:37:51.103Z,9.35
2022-08-26T10:40:29.850Z,7.13
2022-08-26T10:43:11.632Z,7.35
2022-08-26T10:45:43.932Z,7.45
2022-08-26T10:48:36.048Z,7.15
2022-08-26T10:51:04.267Z,6.05
2022-08-26T10:53:42.516Z,7.53
2022-08-26T10:56:42.253Z,7.20
2022-08-26T10:59:29.106Z,5.40
2022-08-26T11:02:07.723Z,9.63
2022-08-26T11:07:31.774Z,4.53
2022-08-26T11:10:00.451Z,10.13
2022-08-26T11:12:37.279Z,5.68
2022-08-26T11:15:11.061Z,4.97
2022-08-26T11:17:46.939Z,5.65
2022-08-26T11:20:23.807Z,5.57
2022-08-26T11:22:51.393Z,5.65
2022-08-26T11:25:24.470Z,6.78
2022-08-26T11:27:57.275Z,5.68
2022-08-26T11:30:25.175Z,8.95
2022-08-26T11:32:55.523Z,7.57
2022-08-26T11:35:25.225Z,12.13
2022-08-26T11:37:56.694Z,6.20
2022-08-26T11:40:29.605Z,6.32
2022-08-26T11:43:06.273Z,4.78
2022-08-26T11:45:37.647Z,7.00
2022-08-26T11:48:21.742Z,3.97
2022-08-26T11:51:01.639Z,7.53
2022-08-26T11:53:30.985Z,3.90
2022-08-26T11:56:02.126Z,5.13
2022-08-26T11:58:29.225Z,5.95
2022-08-26T12:01:09.743Z,4.78
2022-08-26T12:03:47.461Z,3.67
2022-08-26T12:06:31.093Z,4.75
2022-08-26T12:09:02.926Z,4.88
2022-08-26T12:11:36.023Z,5.63
2022-08-26T12:14:08.108Z,3.80
2022-08-26T12:16:37.744Z,5.55
2022-08-26T12:19:33.112Z,5.00
2022-08-26T12:22:19.135Z,3.97
2022-08-26T12:24:55.117Z,6.13
2022-08-26T12:27:29.318Z,6.47
2022-08-26T12:30:06.794Z,8.23
2022-08-26T12:32:36.245Z,5.18
2022-08-26T12:37:35.234Z,6.60
2022-08-26T12:40:27.581Z,3.10
2022-08-26T12:42:54.792Z,3.22
2022-08-26T12:45:33.529Z,5.60
2022-08-26T12:48:06.118Z,4.38
2022-08-26T12:50:34.676Z,4.97
2022-08-26T12:53:10.706Z,5.07
2022-08-26T12:55:54.063Z,5.18
2022-08-26T12:58:39.735Z,4.88
2022-08-26T13:01:07.103Z,7.20
2022-08-26T13:03:34.117Z,4.10
2022-08-26T13:06:20.881Z,4.00
2022-08-26T13:09:29.598Z,6.90
2022-08-26T13:11:57.372Z,6.13
2022-08-26T13:14:24.802Z,5.07
2022-08-26T13:16:52.252Z,4.05
2022-08-26T13:19:21.176Z,5.30
2022-08-26T13:22:01.033Z,5.28
2022-08-26T13:24:39.813Z,4.82
2022-08-26T13:27:07.838Z,6.15
2022-08-26T13:29:34.947Z,6.18
2022-08-26T13:32:02.007Z,7.13
2022-08-26T13:34:28.971Z,5.53
2022-08-26T13:36:56.479Z,6.65
2022-08-26T13:39:23.896Z,5.05
2022-08-26T13:41:50.929Z,4.38
2022-08-26T13:44:18.054Z,6.00
2022-08-26T13:49:31.867Z,5.22
2022-08-26T13:51:58.839Z,5.32
2022-08-26T13:54:25.818Z,4.97
2022-08-26T13:56:52.849Z,7.18
2022-08-26T13:59:19.867Z,6.20
2022-08-26T14:01:46.958Z,5.60
2022-08-26T14:04:13.930Z,5.60
2022-08-26T14:06:40.982Z,5.10
2022-08-26T14:09:07.870Z,7.38
2022-08-26T14:11:53.856Z,4.18
2022-08-26T14:14:21.972Z,5.25
2022-08-26T14:16:59.108Z,5.53
2022-08-26T14:19:30.825Z,4.28
2022-08-26T14:21:57.856Z,6.82
2022-08-26T14:24:24.750Z,6.72
2022-08-26T14:26:51.713Z,7.47
2022-08-26T14:29:18.600Z,8.20
2022-08-26T14:31:45.565Z,8.70
2022-08-26T14:34:12.551Z,6.18
2022-08-26T14:36:39.537Z,8.07
2022-08-26T14:39:09.169Z,4.10
2022-08-26T14:41:53.828Z,4.00
2022-08-26T14:44:22.172Z,6.07
2022-08-26T14:46:50.496Z,6.30
2022-08-26T14:49:17.848Z,6.07
2022-08-26T14:51:45.255Z,5.82
2022-08-26T14:54:16.335Z,5.75
2022-08-26T14:56:54.146Z,5.55
2022-08-26T14:59:29.558Z,4.80
2022-08-26T15:01:56.822Z,7.72
2022-08-26T15:04:24.312Z,5.55
2022-08-26T15:06:53.861Z,4.63
2022-08-26T15:09:21.097Z,4.60
2022-08-26T15:11:48.562Z,5.22
2022-08-26T15:14:19.509Z,4.43
2022-08-26T15:16:48.354Z,6.57
2022-08-26T15:19:16.083Z,5.32
2022-08-26T15:21:43.511Z,4.65
2022-08-26T15:24:10.497Z,4.60
2022-08-26T15:26:37.695Z,5.60
2022-08-26T15:29:05.379Z,9.25
2022-08-26T15:31:32.533Z,4.78
2022-08-26T15:34:02.558Z,7.13
2022-08-26T15:36:30.034Z,4.85
2022-08-26T15:38:58.206Z,6.20
2022-08-26T15:41:25.202Z,6.50
2022-08-26T15:43:52.434Z,4.95
2022-08-26T15:46:19.694Z,5.43
2022-08-26T15:48:46.750Z,5.90
2022-08-26T15:51:20.960Z,5.68
2022-08-26T15:53:49.778Z,5.95
2022-08-26T15:56:17.006Z,4.45
2022-08-26T15:58:45.394Z,4.78
2022-08-26T16:01:12.755Z,4.78
2022-08-26T16:03:44.451Z,4.65
2022-08-26T16:06:15.297Z,7.45
2022-08-26T16:08:42.880Z,7.45
2022-08-26T16:11:09.828Z,5.50
2022-08-26T16:13:39.879Z,5.15
2022-08-26T16:16:07.434Z,5.03
2022-08-26T16:18:34.502Z,5.65
2022-08-26T16:21:13.371Z,5.78
2022-08-26T16:23:45.004Z,6.25
2022-08-26T16:26:17.866Z,4.60
2022-08-26T16:28:45.121Z,6.85
2022-08-26T16:31:12.373Z,5.95
2022-08-26T16:33:40.015Z,4.72
2022-08-26T16:36:07.475Z,3.97
2022-08-26T16:38:34.736Z,3.90
2022-08-26T16:41:01.723Z,5.15
2022-08-26T16:43:28.871Z,4.63
2022-08-26T16:45:56.121Z,4.00
2022-08-26T16:48:23.796Z,5.68
2022-08-26T16:50:51.407Z,8.30
2022-08-26T16:53:19.106Z,4.85
2022-08-26T16:55:47.335Z,5.70
2022-08-26T16:58:14.772Z,8.35
2022-08-26T17:00:41.892Z,4.95
2022-08-26T17:03:09.147Z,3.30
2022-08-26T17:05:36.395Z,5.30
2022-08-26T17:08:03.941Z,6.53
2022-08-26T17:10:31.176Z,5.05
2022-08-26T17:12:58.201Z,4.07
2022-08-26T17:15:25.574Z,4.38
2022-08-26T17:17:53.175Z,12.40
2022-08-26T17:20:20.342Z,4.20
2022-08-26T17:22:48.486Z,5.18
2022-08-26T17:25:30.190Z,4.70
2022-08-26T17:27:57.382Z,4.95
2022-08-26T17:30:25.947Z,5.90
2022-08-26T17:32:54.155Z,9.40
2022-08-26T17:35:21.267Z,5.65
2022-08-26T17:37:48.239Z,4.70
2022-08-26T17:40:17.611Z,5.85
2022-08-26T17:45:12.042Z,5.95
2022-08-26T17:47:39.166Z,7.50
2022-08-26T17:50:09.232Z,8.60
2022-08-26T17:52:37.226Z,6.00
2022-08-26T17:55:05.843Z,6.43
2022-08-26T17:57:32.865Z,5.95
2022-08-26T18:00:11.480Z,7.05
2022-08-26T18:02:38.813Z,4.65
2022-08-26T18:05:06.546Z,7.07
2022-08-26T18:07:33.721Z,5.25
2022-08-26T18:10:13.190Z,4.43
2022-08-26T18:12:41.061Z,5.95
2022-08-26T18:15:08.689Z,5.43
2022-08-26T18:17:35.638Z,8.93
2022-08-26T18:20:02.795Z,5.88
2022-08-26T18:22:30.098Z,6.93
2022-08-26T18:24:58.658Z,8.82
2022-08-26T18:27:26.681Z,5.53
2022-08-26T18:29:54.798Z,5.72
2022-08-26T18:32:21.826Z,8.55
2022-08-26T18:34:48.982Z,7.40
2022-08-26T18:37:15.929Z,5.50
2022-08-26T18:39:42.919Z,4.63
2022-08-26T18:42:09.865Z,6.05
2022-08-26T18:44:36.943Z,3.53
2022-08-26T18:47:04.444Z,6.60
2022-08-26T18:49:31.554Z,5.28
2022-08-26T18:51:58.478Z,4.45
2022-08-26T18:54:25.599Z,7.05
2022-08-26T18:56:52.767Z,6.80
2022-08-26T18:59:19.877Z,4.50
2022-08-26T19:01:56.721Z,8.02
2022-08-26T19:04:32.651Z,6.90
2022-08-26T19:06:59.648Z,8.43
2022-08-26T19:09:27.336Z,7.72
2022-08-26T19:14:23.724Z,7.88
2022-08-26T19:16:52.504Z,5.68
2022-08-26T19:19:20.688Z,10.43
2022-08-26T19:21:48.145Z,8.30
2022-08-26T19:24:17.446Z,6.22
2022-08-26T19:26:45.701Z,6.68
2022-08-26T19:29:13.219Z,6.90
2022-08-26T19:31:40.875Z,9.65
2022-08-26T19:34:10.277Z,7.35
2022-08-26T19:36:37.870Z,15.68
2022-08-26T19:39:06.167Z,7.38
2022-08-26T19:41:37.430Z,6.75
2022-08-26T19:44:10.594Z,10.68
2022-08-26T19:49:05.869Z,6.18
2022-08-26T19:51:34.107Z,5.78
2022-08-26T19:54:01.301Z,7.03
2022-08-26T19:56:28.567Z,7.20
2022-08-26T19:58:56.046Z,7.32
2022-08-26T20:01:23.513Z,6.25
2022-08-26T20:03:50.704Z,5.40
2022-08-26T20:06:17.881Z,7.47
2022-08-26T20:08:45.002Z,7.40
2022-08-26T20:11:15.270Z,7.97
2022-08-26T20:13:42.626Z,6.45
2022-08-26T20:16:11.970Z,6.38
2022-08-26T20:21:28.177Z,7.03
2022-08-26T20:24:06.363Z,6.22
2022-08-26T20:26:37.520Z,5.18
2022-08-26T20:29:04.890Z,6.00
2022-08-26T20:31:31.996Z,5.75
2022-08-26T20:33:58.968Z,5.43
2022-08-26T20:36:27.081Z,6.45
2022-08-26T20:38:54.507Z,5.68
2022-08-26T20:41:22.031Z,6.25
2022-08-26T20:43:49.046Z,6.53
2022-08-26T20:46:17.954Z,6.85
2022-08-26T20:48:47.319Z,5.43
2022-08-26T20:51:14.805Z,5.40
2022-08-26T20:53:41.899Z,5.45
2022-08-26T20:56:09.444Z,4.70
2022-08-26T20:58:36.621Z,5.05
2022-08-26T21:01:07.530Z,6.47
2022-08-26T21:03:36.035Z,8.85
2022-08-26T21:06:03.778Z,6.10
2022-08-26T21:08:33.092Z,7.68
2022-08-26T21:11:01.108Z,7.03
2022-08-26T21:13:35.769Z,8.88
2022-08-26T21:16:10.405Z,9.85
2022-08-26T21:18:37.508Z,9.80
2022-08-26T21:21:08.097Z,6.78
2022-08-26T21:23:35.679Z,7.05
2022-08-26T21:26:03.967Z,6.28
2022-08-26T21:28:31.249Z,7.63
2022-08-26T21:30:58.226Z,6.38
2022-08-26T21:33:25.267Z,7.60
2022-08-26T21:35:53.324Z,8.90
2022-08-26T21:38:20.424Z,8.02
2022-08-26T21:41:07.103Z,11.13
2022-08-26T21:43:35.397Z,7.10
2022-08-26T21:46:11.465Z,8.23
2022-08-26T21:48:39.238Z,8.55
2022-08-26T21:51:06.457Z,9.02
2022-08-26T21:53:33.398Z,8.15
2022-08-26T21:56:04.094Z,7.65
2022-08-26T21:58:31.007Z,7.13
2022-08-26T22:00:57.971Z,6.13
2022-08-26T22:03:25.498Z,8.30
2022-08-26T22:05:52.637Z,7.80
2022-08-26T22:08:20.435Z,8.68
2022-08-26T22:10:51.991Z,9.13
2022-08-26T22:13:20.578Z,6.03
2022-08-26T22:15:48.169Z,7.35
2022-08-26T22:18:15.739Z,8.18
2022-08-26T22:20:42.729Z,5.35
2022-08-26T22:23:09.884Z,6.75
2022-08-26T22:25:36.943Z,6.95
2022-08-26T22:28:04.216Z,6.45
2022-08-26T22:30:31.432Z,7.97
2022-08-26T22:32:58.581Z,7.43
2022-08-26T22:35:28.980Z,7.78
2022-08-26T22:37:57.307Z,7.45
2022-08-26T22:40:24.466Z,8.95
2022-08-26T22:42:57.865Z,8.48
2022-08-26T22:45:27.491Z,10.95
2022-08-26T22:47:54.502Z,9.10
2022-08-26T22:50:21.852Z,8.50
2022-08-26T22:52:48.771Z,10.80
2022-08-26T22:55:15.838Z,8.85
2022-08-26T22:57:42.813Z,5.72
2022-08-26T23:00:13.156Z,6.15
2022-08-26T23:02:41.341Z,8.18
2022-08-26T23:05:08.795Z,8.65
2022-08-26T23:07:35.790Z,11.35
2022-08-26T23:10:04.105Z,5.55
2022-08-26T23:12:31.545Z,7.25
2022-08-26T23:14:58.760Z,6.03
2022-08-26T23:17:25.731Z,8.77
2022-08-26T23:19:52.730Z,6.85
2022-08-26T23:22:19.718Z,6.95
2022-08-26T23:24:46.623Z,8.60
2022-08-26T23:27:13.963Z,6.18
2022-08-26T23:29:41.039Z,6.63
2022-08-26T23:32:08.094Z,9.57
2022-08-26T23:34:54.016Z,8.00
2022-08-26T23:37:21.110Z,6.55
2022-08-26T23:39:49.836Z,5.47
2022-08-26T23:42:16.866Z,4.88
2022-08-26T23:44:43.832Z,7.90
2022-08-26T23:47:11.074Z,6.15
2022-08-26T23:49:38.070Z,7.90
2022-08-26T23:52:23.909Z,6.25
2022-08-26T23:54:52.434Z,7.85
2022-08-26T23:57:20.403Z,14.10
2022-08-26T23:59:48.598Z,6.45
